Main page
METAR-TAF:

METAR-TAF

Airports :

Glasgow-Prestwick, Scotland

Glasgow Prestwick Airport

latitude: 55-30N, longitude: 004-35W, elevation: 20 m

Current weather observation

The report was made 26 minutes ago, at 08:20 UTC
Wind 11 kt from the West/Southwest
Temperature 13°C
Humidity 77%
Pressure 1018 hPa
Visibility 10 km or more
Few clouds at a height of 2500 ft

METAR: EGPK 230820Z 24011KT 9999 FEW025 13/09 Q1018

Time: 09:46 (08:46 UTC)

Forecast

The report was made 3 hours and 49 minutes ago, at 04:57 UTC
Forecast valid from 23 at 06 UTC to 24 at 06 UTC
Wind 8 kt from the Southwest
Visibility 10 km or more
Scattered clouds at a height of 2000 ft
Probability 30% :
Temporary
from 23 at 21 UTC to 24 at 04 UTC
Broken clouds at a height of 1400 ft

TAF: EGPK 230457Z 2306/2406 23008KT 9999 SCT020 PROB30 TEMPO 2321/2404 BKN014

Weather observations and forecasts of more than 4000 airports (METAR and TAF reports).

The available stations are represented by yellow and red dots on the map.

Hover mouse over dot to see the name of the station.

Then click to see weather observations and forecasts.

To change the map : click on the green buttons with a black cross to zoom in, on the green button with a dash to zoom out, or on the green arrows for adjacent maps.


METAR-TAF: